createdAt,value
2019-02-19T00:00:20.074Z,101175.00
2019-02-19T00:02:52.823Z,101172.00
2019-02-19T00:05:25.966Z,101175.00
2019-02-19T00:07:58.973Z,101179.00
2019-02-19T00:10:32.165Z,101172.00
2019-02-19T00:13:04.957Z,101170.00
2019-02-19T00:15:37.917Z,101171.00
2019-02-19T00:18:10.705Z,101166.00
2019-02-19T00:20:43.349Z,101157.00
2019-02-19T00:23:16.358Z,101165.00
2019-02-19T00:25:49.025Z,101170.00
2019-02-19T00:28:22.034Z,101171.00
2019-02-19T00:30:54.810Z,101169.00
2019-02-19T00:33:27.745Z,101156.00
2019-02-19T00:36:00.580Z,101163.00
2019-02-19T00:38:34.560Z,101158.00
2019-02-19T00:41:07.382Z,101156.00
2019-02-19T00:43:40.353Z,101153.00
2019-02-19T00:46:12.917Z,101155.00
2019-02-19T00:48:46.068Z,101148.00
2019-02-19T00:51:18.833Z,101147.00
2019-02-19T00:53:51.626Z,101143.00
2019-02-19T00:56:24.394Z,101140.00
2019-02-19T00:58:58.850Z,101143.00
2019-02-19T01:01:31.619Z,101146.00
2019-02-19T01:04:04.386Z,101144.00
2019-02-19T01:06:36.899Z,101144.00
2019-02-19T01:09:10.764Z,101137.00
2019-02-19T01:11:49.297Z,101139.00
2019-02-19T01:14:22.357Z,101142.00
2019-02-19T01:16:55.736Z,101137.00
2019-02-19T01:19:28.710Z,101132.00
2019-02-19T01:22:01.916Z,101117.00
2019-02-19T01:24:35.307Z,101125.00
2019-02-19T01:27:08.504Z,101124.00
2019-02-19T01:29:41.705Z,101126.00
2019-02-19T01:32:15.866Z,101129.00
2019-02-19T01:34:49.105Z,101123.00
2019-02-19T01:37:22.846Z,101129.00
2019-02-19T01:39:56.121Z,101126.00
2019-02-19T01:42:29.618Z,101118.00
2019-02-19T01:45:02.280Z,101112.00
2019-02-19T01:47:36.135Z,101107.00
2019-02-19T01:50:10.927Z,101108.00
2019-02-19T01:52:43.695Z,101108.00
2019-02-19T01:55:17.710Z,101111.00
2019-02-19T01:57:50.516Z,101105.00
2019-02-19T02:00:24.497Z,101095.00
2019-02-19T02:02:57.293Z,101087.00
2019-02-19T02:05:31.180Z,101088.00
2019-02-19T02:08:03.894Z,101088.00
2019-02-19T02:10:37.746Z,101084.00
2019-02-19T02:13:10.455Z,101081.00
2019-02-19T02:15:43.538Z,101082.00
2019-02-19T02:18:16.225Z,101074.00
2019-02-19T02:20:50.169Z,101065.00
2019-02-19T02:23:22.889Z,101070.00
2019-02-19T02:25:55.794Z,101064.00
2019-02-19T02:28:28.562Z,101058.00
2019-02-19T02:31:01.876Z,101058.00
2019-02-19T02:33:34.971Z,101054.00
2019-02-19T02:36:08.610Z,101053.00
2019-02-19T02:38:41.573Z,101047.00
2019-02-19T02:41:16.172Z,101049.00
2019-02-19T02:43:48.956Z,101052.00
2019-02-19T02:46:22.067Z,101058.00
2019-02-19T02:48:55.347Z,101075.00
2019-02-19T02:51:28.340Z,101079.00
2019-02-19T02:54:01.110Z,101081.00
2019-02-19T02:56:34.495Z,101074.00
2019-02-19T02:59:07.699Z,101079.00
2019-02-19T03:01:41.706Z,101069.00
2019-02-19T03:04:15.112Z,101064.00
2019-02-19T03:06:50.430Z,101060.00
2019-02-19T03:09:23.470Z,101057.00
2019-02-19T03:11:56.396Z,101049.00
2019-02-19T03:14:28.992Z,101051.00
2019-02-19T03:17:01.991Z,101058.00
2019-02-19T03:19:34.875Z,101058.00
2019-02-19T03:22:07.671Z,101050.00
2019-02-19T03:24:40.641Z,101048.00
2019-02-19T03:27:13.307Z,101042.00
2019-02-19T03:29:46.287Z,101046.00
2019-02-19T03:32:19.026Z,101043.00
2019-02-19T03:34:52.195Z,101031.00
2019-02-19T03:37:25.006Z,101019.00
2019-02-19T03:39:57.940Z,101029.00
2019-02-19T03:42:30.735Z,101015.00
2019-02-19T03:45:03.705Z,101019.00
2019-02-19T03:47:36.465Z,101016.00
2019-02-19T03:50:09.483Z,101022.00
2019-02-19T03:52:42.756Z,101011.00
2019-02-19T03:55:15.520Z,101005.00
2019-02-19T03:57:48.428Z,101001.00
2019-02-19T04:00:21.221Z,101001.00
2019-02-19T04:02:55.845Z,101000.00
2019-02-19T04:05:28.723Z,100999.00
2019-02-19T04:08:01.631Z,101002.00
2019-02-19T04:10:34.386Z,101001.00
2019-02-19T04:13:07.374Z,101003.00
2019-02-19T04:15:39.946Z,101002.00
2019-02-19T04:18:12.960Z,100999.00
2019-02-19T04:20:45.619Z,100999.00
2019-02-19T04:23:18.595Z,101002.00
2019-02-19T04:25:51.289Z,100997.00
2019-02-19T04:28:24.848Z,101006.00
2019-02-19T04:31:00.734Z,101002.00
2019-02-19T04:33:33.836Z,101014.00
2019-02-19T04:36:06.513Z,101019.00
2019-02-19T04:38:39.487Z,101017.00
2019-02-19T04:41:12.303Z,101025.00
2019-02-19T04:43:45.180Z,101015.00
2019-02-19T04:46:17.914Z,101022.00
2019-02-19T04:48:50.637Z,101023.00
2019-02-19T04:51:23.452Z,101023.00
2019-02-19T04:53:56.206Z,101017.00
2019-02-19T04:56:29.249Z,101022.00
2019-02-19T04:59:01.823Z,101019.00
2019-02-19T05:01:34.571Z,101026.00
2019-02-19T05:04:08.551Z,101013.00
2019-02-19T05:06:41.486Z,101012.00
2019-02-19T05:09:14.118Z,101022.00
2019-02-19T05:11:47.543Z,101020.00
2019-02-19T05:14:20.307Z,101014.00
2019-02-19T05:16:54.212Z,101013.00
2019-02-19T05:19:27.436Z,101006.00
2019-02-19T05:22:00.070Z,101008.00
2019-02-19T05:24:32.920Z,101012.00
2019-02-19T05:27:05.644Z,101015.00
2019-02-19T05:29:38.308Z,101021.00
2019-02-19T05:32:11.831Z,101022.00
2019-02-19T05:34:44.807Z,101023.00
2019-02-19T05:37:17.939Z,101016.00
2019-02-19T05:39:51.046Z,101017.00
2019-02-19T05:42:24.286Z,101011.00
2019-02-19T05:44:57.322Z,101017.00
2019-02-19T05:47:30.500Z,101018.00
2019-02-19T05:50:03.488Z,101018.00
2019-02-19T05:52:37.303Z,101019.00
2019-02-19T05:55:10.734Z,101015.00
2019-02-19T05:57:45.909Z,101017.00
2019-02-19T06:00:18.896Z,101022.00
2019-02-19T06:02:51.678Z,101021.00
2019-02-19T06:05:25.375Z,101017.00
2019-02-19T06:07:58.631Z,101024.00
2019-02-19T06:10:31.665Z,101027.00
2019-02-19T06:13:04.676Z,101025.00
2019-02-19T06:15:37.854Z,101024.00
2019-02-19T06:18:10.790Z,101031.00
2019-02-19T06:20:43.732Z,101030.00
2019-02-19T06:23:16.614Z,101025.00
2019-02-19T06:25:49.670Z,101033.00
2019-02-19T06:28:22.434Z,101044.00
2019-02-19T06:30:55.558Z,101033.00
2019-02-19T06:33:28.555Z,101041.00
2019-02-19T06:36:01.616Z,101044.00
2019-02-19T06:38:34.427Z,101054.00
2019-02-19T06:41:07.696Z,101044.00
2019-02-19T06:43:40.905Z,101059.00
2019-02-19T06:46:14.045Z,101051.00
2019-02-19T06:48:47.106Z,101051.00
2019-02-19T06:51:20.291Z,101055.00
2019-02-19T06:53:53.122Z,101062.00
2019-02-19T06:56:26.253Z,101067.00
2019-02-19T06:58:59.125Z,101063.00
2019-02-19T07:01:48.950Z,101068.00
2019-02-19T07:04:24.268Z,101072.00
2019-02-19T07:06:59.662Z,101064.00
2019-02-19T07:09:32.671Z,101076.00
2019-02-19T07:12:05.822Z,101079.00
2019-02-19T07:14:38.866Z,101078.00
2019-02-19T07:17:15.717Z,101078.00
2019-02-19T07:19:45.964Z,101074.00
2019-02-19T07:22:19.024Z,101077.00
2019-02-19T07:24:52.037Z,101089.00
2019-02-19T07:27:25.032Z,101088.00
2019-02-19T07:29:57.864Z,101095.00
2019-02-19T07:32:31.196Z,101111.00
2019-02-19T07:35:03.871Z,101108.00
2019-02-19T07:37:36.731Z,101119.00
2019-02-19T07:40:11.207Z,101114.00
2019-02-19T07:42:44.603Z,101117.00
2019-02-19T07:45:17.796Z,101115.00
2019-02-19T07:47:50.983Z,101117.00
2019-02-19T07:50:24.089Z,101127.00
2019-02-19T07:52:57.217Z,101126.00
2019-02-19T07:55:30.343Z,101127.00
2019-02-19T07:58:03.340Z,101121.00
2019-02-19T08:00:36.573Z,101119.00
2019-02-19T08:03:09.501Z,101124.00
2019-02-19T08:05:43.045Z,101130.00
2019-02-19T08:08:16.084Z,101121.00
2019-02-19T08:10:49.296Z,101129.00
2019-02-19T08:13:22.283Z,101140.00
2019-02-19T08:15:55.564Z,101134.00
2019-02-19T08:18:28.470Z,101138.00
2019-02-19T08:21:01.665Z,101144.00
2019-02-19T08:23:34.636Z,101144.00
2019-02-19T08:26:07.799Z,101147.00
2019-02-19T08:28:40.812Z,101145.00
2019-02-19T08:31:14.120Z,101148.00
2019-02-19T08:33:46.859Z,101163.00
2019-02-19T08:36:20.676Z,101165.00
2019-02-19T08:38:53.568Z,101169.00
2019-02-19T08:41:26.841Z,101160.00
2019-02-19T08:43:59.765Z,101170.00
2019-02-19T08:46:32.943Z,101175.00
2019-02-19T08:49:05.921Z,101178.00
2019-02-19T08:51:39.111Z,101184.00
2019-02-19T08:54:12.112Z,101190.00
2019-02-19T08:56:45.508Z,101184.00
2019-02-19T08:59:19.648Z,101183.00
2019-02-19T09:01:52.852Z,101193.00
2019-02-19T09:04:25.587Z,101203.00
2019-02-19T09:06:58.896Z,101201.00
2019-02-19T09:09:32.011Z,101205.00
2019-02-19T09:12:05.151Z,101206.00
2019-02-19T09:14:38.067Z,101201.00
2019-02-19T09:17:11.471Z,101208.00
2019-02-19T09:19:44.441Z,101207.00
2019-02-19T09:22:18.723Z,101211.00
2019-02-19T09:24:51.827Z,101202.00
2019-02-19T09:27:25.246Z,101195.00
2019-02-19T09:29:58.207Z,101199.00
2019-02-19T09:32:31.415Z,101190.00
2019-02-19T09:35:04.388Z,101200.00
2019-02-19T09:37:37.419Z,101203.00
2019-02-19T09:40:11.848Z,101196.00
2019-02-19T09:42:45.014Z,101189.00
2019-02-19T09:45:17.974Z,101194.00
2019-02-19T09:48:00.759Z,101194.00
2019-02-19T09:50:26.457Z,101204.00
2019-02-19T09:53:00.217Z,101203.00
2019-02-19T09:55:33.607Z,101208.00
2019-02-19T09:58:06.455Z,101208.00
2019-02-19T10:00:39.467Z,101208.00
2019-02-19T10:03:12.560Z,101208.00
2019-02-19T10:05:45.704Z,101206.00
2019-02-19T10:08:19.284Z,101213.00
2019-02-19T10:10:52.993Z,101204.00
2019-02-19T10:13:25.917Z,101207.00
2019-02-19T10:15:58.812Z,101210.00
2019-02-19T10:18:31.553Z,101214.00
2019-02-19T10:21:04.651Z,101204.00
2019-02-19T10:23:37.685Z,101205.00
2019-02-19T10:26:10.838Z,101204.00
2019-02-19T10:28:44.940Z,101197.00
2019-02-19T10:31:18.037Z,101192.00
2019-02-19T10:33:50.841Z,101193.00
2019-02-19T10:36:23.710Z,101194.00
2019-02-19T10:38:56.598Z,101196.00
2019-02-19T10:41:29.626Z,101192.00
2019-02-19T10:44:02.359Z,101187.00
2019-02-19T10:46:35.507Z,101185.00
2019-02-19T10:49:08.667Z,101188.00
2019-02-19T10:51:42.461Z,101193.00
2019-02-19T10:54:16.406Z,101186.00
2019-02-19T10:56:53.947Z,101185.00
2019-02-19T10:59:28.819Z,101182.00
2019-02-19T11:02:03.198Z,101186.00
2019-02-19T11:04:36.127Z,101188.00
2019-02-19T11:07:12.392Z,101187.00
2019-02-19T11:09:45.435Z,101192.00
2019-02-19T11:12:18.566Z,101187.00
2019-02-19T11:14:52.342Z,101186.00
2019-02-19T11:17:25.283Z,101184.00
2019-02-19T11:19:58.240Z,101190.00
2019-02-19T11:22:31.212Z,101190.00
2019-02-19T11:25:04.080Z,101200.00
2019-02-19T11:27:37.201Z,101210.00
2019-02-19T11:30:12.467Z,101207.00
2019-02-19T11:32:45.484Z,101212.00
2019-02-19T11:35:18.265Z,101215.00
2019-02-19T11:37:51.409Z,101220.00
2019-02-19T11:40:24.453Z,101220.00
2019-02-19T11:42:57.457Z,101233.00
2019-02-19T11:45:30.430Z,101225.00
2019-02-19T11:48:03.500Z,101243.00
2019-02-19T11:50:36.410Z,101240.00
2019-02-19T11:53:09.313Z,101246.00
2019-02-19T11:55:42.182Z,101235.00
2019-02-19T11:58:15.146Z,101234.00
2019-02-19T12:00:48.358Z,101238.00
2019-02-19T12:03:21.335Z,101241.00
2019-02-19T12:05:54.113Z,101241.00
2019-02-19T12:08:28.232Z,101242.00
2019-02-19T12:11:01.236Z,101247.00
2019-02-19T12:13:34.293Z,101239.00
2019-02-19T12:16:07.188Z,101246.00
2019-02-19T12:18:45.913Z,101238.00
2019-02-19T12:21:14.297Z,101233.00
2019-02-19T12:23:47.386Z,101234.00
2019-02-19T12:26:20.264Z,101221.00
2019-02-19T12:28:53.337Z,101225.00
2019-02-19T12:31:26.504Z,101209.00
2019-02-19T12:33:59.663Z,101209.00
2019-02-19T12:36:32.923Z,101205.00
2019-02-19T12:39:07.019Z,101207.00
2019-02-19T12:41:39.963Z,101201.00
2019-02-19T12:44:12.819Z,101183.00
2019-02-19T12:46:45.948Z,101194.00
2019-02-19T12:49:18.778Z,101193.00
2019-02-19T12:51:51.796Z,101180.00
2019-02-19T12:54:24.733Z,101179.00
2019-02-19T12:56:58.672Z,101180.00
2019-02-19T12:59:31.540Z,101179.00
2019-02-19T13:02:04.673Z,101176.00
2019-02-19T13:04:37.522Z,101165.00
2019-02-19T13:07:10.365Z,101169.00
2019-02-19T13:09:43.414Z,101165.00
2019-02-19T13:12:16.874Z,101158.00
2019-02-19T13:14:49.714Z,101161.00
2019-02-19T13:17:22.782Z,101159.00
2019-02-19T13:19:55.655Z,101154.00
2019-02-19T13:22:28.612Z,101155.00
2019-02-19T13:25:01.427Z,101155.00
2019-02-19T13:27:34.583Z,101151.00
2019-02-19T13:30:10.467Z,101139.00
2019-02-19T13:32:43.688Z,101137.00
2019-02-19T13:35:17.021Z,101137.00
2019-02-19T13:37:50.875Z,101138.00
2019-02-19T13:40:23.665Z,101146.00
2019-02-19T13:42:56.817Z,101144.00
2019-02-19T13:45:29.639Z,101151.00
2019-02-19T13:48:05.982Z,101146.00
2019-02-19T13:50:36.487Z,101145.00
2019-02-19T13:53:22.874Z,101132.00
2019-02-19T13:55:56.869Z,101133.00
2019-02-19T13:58:29.727Z,101138.00
2019-02-19T14:01:02.863Z,101139.00
2019-02-19T14:03:35.884Z,101135.00
2019-02-19T14:06:09.247Z,101130.00
2019-02-19T14:08:42.051Z,101128.00
2019-02-19T14:11:14.953Z,101133.00
2019-02-19T14:13:49.214Z,101126.00
2019-02-19T14:16:23.713Z,101138.00
2019-02-19T14:18:57.616Z,101127.00
2019-02-19T14:21:34.811Z,101133.00
2019-02-19T14:24:08.730Z,101131.00
2019-02-19T14:26:55.420Z,101132.00
2019-02-19T14:29:46.114Z,101131.00
2019-02-19T14:32:35.895Z,101128.00
2019-02-19T14:35:11.595Z,101120.00
2019-02-19T14:37:49.979Z,101132.00
2019-02-19T14:40:24.103Z,101125.00
2019-02-19T14:43:04.636Z,101124.00
2019-02-19T14:45:55.029Z,101120.00
2019-02-19T14:48:39.072Z,101117.00
2019-02-19T14:51:29.281Z,101118.00
2019-02-19T14:54:03.469Z,101128.00
2019-02-19T14:56:37.485Z,101120.00
2019-02-19T14:59:15.259Z,101126.00
2019-02-19T15:02:05.817Z,101110.00
2019-02-19T15:04:56.310Z,101113.00
2019-02-19T15:07:48.627Z,101110.00
2019-02-19T15:10:26.426Z,101111.00
2019-02-19T15:13:06.480Z,101112.00
2019-02-19T15:15:40.627Z,101107.00
2019-02-19T15:18:14.891Z,101105.00
2019-02-19T15:20:49.019Z,101103.00
2019-02-19T15:23:25.999Z,101093.00
2019-02-19T15:26:06.716Z,101099.00
2019-02-19T15:28:56.707Z,101093.00
2019-02-19T15:31:34.050Z,101085.00
2019-02-19T15:34:23.511Z,101084.00
2019-02-19T15:37:16.217Z,101083.00
2019-02-19T15:40:06.653Z,101075.00
2019-02-19T15:42:40.906Z,101080.00
2019-02-19T15:45:32.726Z,101079.00
2019-02-19T15:48:23.314Z,101085.00
2019-02-19T15:51:13.378Z,101088.00
2019-02-19T15:53:47.416Z,101093.00
2019-02-19T15:56:24.822Z,101088.00
2019-02-19T15:59:14.160Z,101084.00
2019-02-19T16:01:54.121Z,101082.00
2019-02-19T16:04:40.723Z,101078.00
2019-02-19T16:07:24.279Z,101088.00
2019-02-19T16:10:16.807Z,101088.00
2019-02-19T16:12:54.055Z,101089.00
2019-02-19T16:15:33.969Z,101089.00
2019-02-19T16:18:09.063Z,101078.00
2019-02-19T16:20:52.055Z,101073.00
2019-02-19T16:23:26.107Z,101069.00
2019-02-19T16:26:06.462Z,101063.00
2019-02-19T16:28:43.396Z,101067.00
2019-02-19T16:31:17.469Z,101074.00
2019-02-19T16:34:10.417Z,101077.00
2019-02-19T16:36:47.254Z,101071.00
2019-02-19T16:39:28.564Z,101060.00
2019-02-19T16:42:14.669Z,101063.00
2019-02-19T16:44:58.939Z,101070.00
2019-02-19T16:47:35.688Z,101065.00
2019-02-19T16:50:11.578Z,101062.00
2019-02-19T16:52:51.433Z,101074.00
2019-02-19T16:55:34.618Z,101068.00
2019-02-19T16:58:12.103Z,101065.00
2019-02-19T17:00:50.705Z,101078.00
2019-02-19T17:03:27.357Z,101078.00
2019-02-19T17:06:10.181Z,101068.00
2019-02-19T17:08:46.999Z,101078.00
2019-02-19T17:11:21.010Z,101070.00
2019-02-19T17:14:11.306Z,101063.00
2019-02-19T17:16:51.783Z,101062.00
2019-02-19T17:19:32.127Z,101066.00
2019-02-19T17:22:09.964Z,101071.00
2019-02-19T17:24:50.380Z,101078.00
2019-02-19T17:27:24.379Z,101074.00
2019-02-19T17:30:06.955Z,101070.00
2019-02-19T17:32:41.035Z,101075.00
2019-02-19T17:35:18.511Z,101081.00
2019-02-19T17:38:01.844Z,101093.00
2019-02-19T17:40:35.940Z,101096.00
2019-02-19T17:43:09.974Z,101096.00
2019-02-19T17:45:59.119Z,101096.00
2019-02-19T17:48:45.336Z,101101.00
2019-02-19T17:51:35.301Z,101105.00
2019-02-19T17:54:18.634Z,101118.00
2019-02-19T17:57:01.435Z,101114.00
2019-02-19T17:59:41.820Z,101117.00
2019-02-19T18:02:15.871Z,101118.00
2019-02-19T18:04:55.909Z,101111.00
2019-02-19T18:07:30.235Z,101109.00
2019-02-19T18:10:04.718Z,101118.00
2019-02-19T18:12:44.505Z,101113.00
2019-02-19T18:15:35.129Z,101117.00
2019-02-19T18:18:15.512Z,101139.00
2019-02-19T18:20:48.707Z,101154.00
2019-02-19T18:23:21.659Z,101162.00
2019-02-19T18:25:54.571Z,101158.00
2019-02-19T18:28:27.844Z,101163.00
2019-02-19T18:31:00.700Z,101158.00
2019-02-19T18:33:33.603Z,101157.00
2019-02-19T18:36:06.581Z,101156.00
2019-02-19T18:38:39.386Z,101163.00
2019-02-19T18:41:12.032Z,101165.00
2019-02-19T18:43:45.113Z,101165.00
2019-02-19T18:46:18.124Z,101152.00
2019-02-19T18:48:51.116Z,101162.00
2019-02-19T18:51:24.224Z,101156.00
2019-02-19T18:53:57.284Z,101164.00
2019-02-19T18:56:30.096Z,101165.00
2019-02-19T18:59:03.272Z,101171.00
2019-02-19T19:01:36.044Z,101177.00
2019-02-19T19:04:08.960Z,101169.00
2019-02-19T19:06:41.826Z,101170.00
2019-02-19T19:09:15.125Z,101168.00
2019-02-19T19:11:48.001Z,101174.00
2019-02-19T19:14:21.381Z,101184.00
2019-02-19T19:16:54.306Z,101190.00
2019-02-19T19:19:27.361Z,101183.00
2019-02-19T19:22:00.137Z,101194.00
2019-02-19T19:24:33.132Z,101193.00
2019-02-19T19:27:05.941Z,101183.00
2019-02-19T19:29:39.000Z,101180.00
2019-02-19T19:32:12.484Z,101182.00
2019-02-19T19:34:45.704Z,101190.00
2019-02-19T19:37:18.495Z,101193.00
2019-02-19T19:39:51.902Z,101192.00
2019-02-19T19:42:24.770Z,101197.00
2019-02-19T19:44:57.878Z,101196.00
2019-02-19T19:47:30.758Z,101195.00
2019-02-19T19:50:03.911Z,101210.00
2019-02-19T19:52:36.802Z,101212.00
2019-02-19T19:55:11.339Z,101217.00
2019-02-19T19:57:44.201Z,101215.00
2019-02-19T20:00:17.844Z,101214.00
2019-02-19T20:02:50.831Z,101214.00
2019-02-19T20:05:24.308Z,101217.00
2019-02-19T20:07:57.244Z,101219.00
2019-02-19T20:10:30.063Z,101220.00
2019-02-19T20:13:03.205Z,101215.00
2019-02-19T20:15:36.140Z,101212.00
2019-02-19T20:18:09.458Z,101211.00
2019-02-19T20:20:42.314Z,101217.00
2019-02-19T20:23:15.199Z,101214.00
2019-02-19T20:25:48.082Z,101214.00
2019-02-19T20:28:21.215Z,101215.00
2019-02-19T20:30:54.244Z,101209.00
2019-02-19T20:33:27.954Z,101201.00
2019-02-19T20:36:00.918Z,101193.00
2019-02-19T20:38:33.851Z,101194.00
2019-02-19T20:41:06.832Z,101184.00
2019-02-19T20:43:39.612Z,101173.00
2019-02-19T20:46:13.669Z,101176.00
2019-02-19T20:48:46.612Z,101172.00
2019-02-19T20:51:19.512Z,101164.00
2019-02-19T20:53:52.566Z,101178.00
2019-02-19T20:56:25.369Z,101182.00
2019-02-19T20:58:58.640Z,101187.00
2019-02-19T21:01:31.538Z,101186.00
2019-02-19T21:04:04.460Z,101178.00
2019-02-19T21:06:37.840Z,101167.00
2019-02-19T21:09:10.592Z,101181.00
2019-02-19T21:11:43.680Z,101182.00
2019-02-19T21:14:16.471Z,101192.00
2019-02-19T21:16:49.462Z,101185.00
2019-02-19T21:19:22.366Z,101187.00
2019-02-19T21:21:55.577Z,101190.00
2019-02-19T21:24:30.077Z,101191.00
2019-02-19T21:27:02.530Z,101188.00
2019-02-19T21:29:35.605Z,101195.00
2019-02-19T21:32:08.404Z,101195.00
2019-02-19T21:34:42.390Z,101196.00
2019-02-19T21:37:15.343Z,101206.00
2019-02-19T21:39:48.384Z,101199.00
2019-02-19T21:42:22.543Z,101194.00
2019-02-19T21:44:55.536Z,101191.00
2019-02-19T21:47:28.502Z,101189.00
2019-02-19T21:50:02.542Z,101187.00
2019-02-19T21:52:35.361Z,101187.00
2019-02-19T21:55:09.858Z,101178.00
2019-02-19T21:57:42.797Z,101175.00
2019-02-19T22:00:20.588Z,101180.00
2019-02-19T22:02:53.666Z,101173.00
2019-02-19T22:05:26.656Z,101177.00
2019-02-19T22:07:59.923Z,101184.00
2019-02-19T22:10:32.710Z,101182.00
2019-02-19T22:13:05.610Z,101185.00
2019-02-19T22:15:39.210Z,101200.00
2019-02-19T22:18:11.974Z,101196.00
2019-02-19T22:20:46.261Z,101198.00
2019-02-19T22:23:19.211Z,101204.00
2019-02-19T22:25:52.313Z,101214.00
2019-02-19T22:28:25.187Z,101205.00
2019-02-19T22:30:58.270Z,101203.00
2019-02-19T22:33:31.325Z,101209.00
2019-02-19T22:36:04.134Z,101211.00
2019-02-19T22:38:37.094Z,101214.00
2019-02-19T22:41:09.771Z,101217.00
2019-02-19T22:43:42.926Z,101209.00
2019-02-19T22:46:15.962Z,101201.00
2019-02-19T22:48:48.992Z,101227.00
2019-02-19T22:51:21.855Z,101224.00
2019-02-19T22:53:59.488Z,101219.00
2019-02-19T22:56:33.611Z,101215.00
2019-02-19T22:59:06.543Z,101206.00
2019-02-19T23:01:40.780Z,101204.00
2019-02-19T23:04:13.652Z,101205.00
2019-02-19T23:06:46.528Z,101216.00
2019-02-19T23:09:19.494Z,101205.00
2019-02-19T23:11:52.302Z,101202.00
2019-02-19T23:14:25.266Z,101194.00
2019-02-19T23:16:58.275Z,101194.00
2019-02-19T23:19:31.263Z,101202.00
2019-02-19T23:22:04.391Z,101201.00
2019-02-19T23:24:38.031Z,101189.00
2019-02-19T23:27:10.828Z,101186.00
2019-02-19T23:29:43.598Z,101179.00
2019-02-19T23:32:16.386Z,101181.00
2019-02-19T23:34:50.646Z,101185.00
2019-02-19T23:37:23.462Z,101192.00
2019-02-19T23:39:56.586Z,101180.00
2019-02-19T23:42:29.560Z,101188.00
2019-02-19T23:45:02.539Z,101188.00
2019-02-19T23:47:35.323Z,101196.00
2019-02-19T23:50:09.898Z,101191.00
2019-02-19T23:52:42.751Z,101187.00
2019-02-19T23:55:15.762Z,101191.00
2019-02-19T23:57:48.587Z,101191.00
